sensor_id;sensor_type;location;lat;lon;timestamp;P1;durP1;ratioP1;P2;durP2;ratioP2
23812;SDS011;12087;45.190;5.688;2023-03-14T00:00:10;6.05;;;1.05;;
23812;SDS011;12087;45.190;5.688;2023-03-14T00:05:35;1.90;;;0.70;;
23812;SDS011;12087;45.190;5.688;2023-03-14T00:11:03;1.05;;;0.60;;
23812;SDS011;12087;45.190;5.688;2023-03-14T00:16:26;1.33;;;0.50;;
23812;SDS011;12087;45.190;5.688;2023-03-14T00:21:48;1.90;;;0.45;;
23812;SDS011;12087;45.190;5.688;2023-03-14T00:27:12;0.50;;;0.50;;
23812;SDS011;12087;45.190;5.688;2023-03-14T00:32:34;0.47;;;0.47;;
23812;SDS011;12087;45.190;5.688;2023-03-14T00:37:56;0.50;;;0.40;;
23812;SDS011;12087;45.190;5.688;2023-03-14T00:43:20;1.42;;;0.50;;
23812;SDS011;12087;45.190;5.688;2023-03-14T00:48:44;5.88;;;0.68;;
23812;SDS011;12087;45.190;5.688;2023-03-14T00:54:06;0.38;;;0.38;;
23812;SDS011;12087;45.190;5.688;2023-03-14T00:59:30;3.20;;;0.30;;
23812;SDS011;12087;45.190;5.688;2023-03-14T01:04:52;0.30;;;0.30;;
23812;SDS011;12087;45.190;5.688;2023-03-14T01:10:14;1.23;;;0.40;;
23812;SDS011;12087;45.190;5.688;2023-03-14T01:15:38;0.32;;;0.20;;
23812;SDS011;12087;45.190;5.688;2023-03-14T01:21:00;0.65;;;0.50;;
23812;SDS011;12087;45.190;5.688;2023-03-14T01:26:24;2.45;;;0.95;;
23812;SDS011;12087;45.190;5.688;2023-03-14T01:31:49;0.77;;;0.50;;
23812;SDS011;12087;45.190;5.688;2023-03-14T01:37:11;0.52;;;0.45;;
23812;SDS011;12087;45.190;5.688;2023-03-14T01:42:33;0.77;;;0.47;;
23812;SDS011;12087;45.190;5.688;2023-03-14T01:47:57;0.30;;;0.30;;
23812;SDS011;12087;45.190;5.688;2023-03-14T01:53:19;0.80;;;0.40;;
23812;SDS011;12087;45.190;5.688;2023-03-14T01:58:43;0.90;;;0.50;;
23812;SDS011;12087;45.190;5.688;2023-03-14T02:04:11;0.93;;;0.50;;
23812;SDS011;12087;45.190;5.688;2023-03-14T02:09:34;0.40;;;0.40;;
23812;SDS011;12087;45.190;5.688;2023-03-14T02:14:57;0.90;;;0.57;;
23812;SDS011;12087;45.190;5.688;2023-03-14T02:20:24;0.88;;;0.55;;
23812;SDS011;12087;45.190;5.688;2023-03-14T02:25:53;0.70;;;0.60;;
23812;SDS011;12087;45.190;5.688;2023-03-14T02:31:21;1.02;;;0.68;;
23812;SDS011;12087;45.190;5.688;2023-03-14T02:36:44;1.17;;;0.50;;
23812;SDS011;12087;45.190;5.688;2023-03-14T02:42:07;1.25;;;0.82;;
23812;SDS011;12087;45.190;5.688;2023-03-14T02:47:31;1.55;;;0.50;;
23812;SDS011;12087;45.190;5.688;2023-03-14T02:52:53;0.63;;;0.50;;
23812;SDS011;12087;45.190;5.688;2023-03-14T02:58:15;0.32;;;0.32;;
23812;SDS011;12087;45.190;5.688;2023-03-14T03:03:39;0.80;;;0.63;;
23812;SDS011;12087;45.190;5.688;2023-03-14T03:09:02;1.55;;;0.65;;
23812;SDS011;12087;45.190;5.688;2023-03-14T03:14:24;1.00;;;0.50;;
23812;SDS011;12087;45.190;5.688;2023-03-14T03:19:48;1.05;;;0.68;;
23812;SDS011;12087;45.190;5.688;2023-03-14T03:25:10;0.40;;;0.40;;
23812;SDS011;12087;45.190;5.688;2023-03-14T03:30:32;1.25;;;0.70;;
23812;SDS011;12087;45.190;5.688;2023-03-14T03:35:59;0.50;;;0.40;;
23812;SDS011;12087;45.190;5.688;2023-03-14T03:41:21;0.80;;;0.65;;
23812;SDS011;12087;45.190;5.688;2023-03-14T03:46:44;1.73;;;0.95;;
23812;SDS011;12087;45.190;5.688;2023-03-14T03:52:07;2.42;;;0.68;;
23812;SDS011;12087;45.190;5.688;2023-03-14T03:57:30;3.20;;;1.00;;
23812;SDS011;12087;45.190;5.688;2023-03-14T04:02:53;3.10;;;0.60;;
23812;SDS011;12087;45.190;5.688;2023-03-14T04:08:17;3.05;;;0.60;;
23812;SDS011;12087;45.190;5.688;2023-03-14T04:13:39;0.77;;;0.63;;
23812;SDS011;12087;45.190;5.688;2023-03-14T04:19:01;0.70;;;0.50;;
23812;SDS011;12087;45.190;5.688;2023-03-14T04:24:25;1.17;;;0.75;;
23812;SDS011;12087;45.190;5.688;2023-03-14T04:29:47;1.30;;;0.70;;
23812;SDS011;12087;45.190;5.688;2023-03-14T04:35:09;1.85;;;0.63;;
23812;SDS011;12087;45.190;5.688;2023-03-14T04:40:33;2.58;;;0.73;;
23812;SDS011;12087;45.190;5.688;2023-03-14T04:45:57;0.55;;;0.50;;
23812;SDS011;12087;45.190;5.688;2023-03-14T04:51:20;0.68;;;0.50;;
23812;SDS011;12087;45.190;5.688;2023-03-14T04:56:44;0.95;;;0.50;;
23812;SDS011;12087;45.190;5.688;2023-03-14T05:02:07;2.65;;;0.43;;
23812;SDS011;12087;45.190;5.688;2023-03-14T05:07:29;1.35;;;0.85;;
23812;SDS011;12087;45.190;5.688;2023-03-14T05:12:53;0.80;;;0.60;;
23812;SDS011;12087;45.190;5.688;2023-03-14T05:18:15;5.05;;;0.52;;
23812;SDS011;12087;45.190;5.688;2023-03-14T05:23:37;1.10;;;0.63;;
23812;SDS011;12087;45.190;5.688;2023-03-14T05:29:01;1.77;;;0.90;;
23812;SDS011;12087;45.190;5.688;2023-03-14T05:34:23;1.83;;;0.57;;
23812;SDS011;12087;45.190;5.688;2023-03-14T05:39:45;4.70;;;0.70;;
23812;SDS011;12087;45.190;5.688;2023-03-14T05:45:09;0.80;;;0.60;;
23812;SDS011;12087;45.190;5.688;2023-03-14T05:50:32;1.55;;;0.75;;
23812;SDS011;12087;45.190;5.688;2023-03-14T05:55:54;1.70;;;1.00;;
23812;SDS011;12087;45.190;5.688;2023-03-14T06:01:18;5.75;;;0.90;;
23812;SDS011;12087;45.190;5.688;2023-03-14T06:06:40;0.98;;;0.88;;
23812;SDS011;12087;45.190;5.688;2023-03-14T06:12:03;1.17;;;0.60;;
23812;SDS011;12087;45.190;5.688;2023-03-14T06:17:27;2.00;;;0.75;;
23812;SDS011;12087;45.190;5.688;2023-03-14T06:22:49;1.23;;;0.70;;
23812;SDS011;12087;45.190;5.688;2023-03-14T06:28:11;3.10;;;0.70;;
23812;SDS011;12087;45.190;5.688;2023-03-14T06:33:35;2.45;;;1.08;;
23812;SDS011;12087;45.190;5.688;2023-03-14T06:38:57;2.80;;;0.80;;
23812;SDS011;12087;45.190;5.688;2023-03-14T06:44:19;4.72;;;0.80;;
23812;SDS011;12087;45.190;5.688;2023-03-14T06:49:43;4.60;;;2.50;;
23812;SDS011;12087;45.190;5.688;2023-03-14T06:55:05;3.97;;;0.95;;
23812;SDS011;12087;45.190;5.688;2023-03-14T07:00:28;1.52;;;0.70;;
23812;SDS011;12087;45.190;5.688;2023-03-14T07:05:52;3.63;;;1.00;;
23812;SDS011;12087;45.190;5.688;2023-03-14T07:11:15;2.70;;;0.90;;
23812;SDS011;12087;45.190;5.688;2023-03-14T07:16:37;2.05;;;1.20;;
23812;SDS011;12087;45.190;5.688;2023-03-14T07:22:01;3.53;;;0.63;;
23812;SDS011;12087;45.190;5.688;2023-03-14T07:27:23;2.50;;;0.70;;
23812;SDS011;12087;45.190;5.688;2023-03-14T07:32:45;2.15;;;0.55;;
23812;SDS011;12087;45.190;5.688;2023-03-14T07:38:09;2.17;;;0.77;;
23812;SDS011;12087;45.190;5.688;2023-03-14T07:43:31;2.50;;;0.90;;
23812;SDS011;12087;45.190;5.688;2023-03-14T07:48:53;1.40;;;0.68;;
23812;SDS011;12087;45.190;5.688;2023-03-14T07:54:17;1.77;;;0.95;;
23812;SDS011;12087;45.190;5.688;2023-03-14T07:59:39;4.90;;;0.85;;
23812;SDS011;12087;45.190;5.688;2023-03-14T08:05:01;1.17;;;0.80;;
23812;SDS011;12087;45.190;5.688;2023-03-14T08:10:25;2.15;;;1.10;;
23812;SDS011;12087;45.190;5.688;2023-03-14T08:15:48;1.20;;;0.63;;
23812;SDS011;12087;45.190;5.688;2023-03-14T08:21:11;1.63;;;0.77;;
23812;SDS011;12087;45.190;5.688;2023-03-14T08:26:35;1.10;;;0.70;;
23812;SDS011;12087;45.190;5.688;2023-03-14T08:31:57;3.88;;;0.90;;
23812;SDS011;12087;45.190;5.688;2023-03-14T08:37:19;3.90;;;1.00;;
23812;SDS011;12087;45.190;5.688;2023-03-14T08:42:43;4.03;;;1.00;;
23812;SDS011;12087;45.190;5.688;2023-03-14T08:48:06;2.40;;;1.45;;
23812;SDS011;12087;45.190;5.688;2023-03-14T08:53:28;5.18;;;1.13;;
23812;SDS011;12087;45.190;5.688;2023-03-14T08:58:51;4.95;;;1.10;;
23812;SDS011;12087;45.190;5.688;2023-03-14T09:04:14;2.53;;;1.17;;
23812;SDS011;12087;45.190;5.688;2023-03-14T09:09:36;1.33;;;0.88;;
23812;SDS011;12087;45.190;5.688;2023-03-14T09:15:00;3.00;;;1.10;;
23812;SDS011;12087;45.190;5.688;2023-03-14T09:20:22;1.50;;;1.15;;
23812;SDS011;12087;45.190;5.688;2023-03-14T09:25:44;1.50;;;0.77;;
23812;SDS011;12087;45.190;5.688;2023-03-14T09:31:08;6.18;;;3.55;;
23812;SDS011;12087;45.190;5.688;2023-03-14T09:36:31;6.28;;;2.70;;
23812;SDS011;12087;45.190;5.688;2023-03-14T09:41:54;5.82;;;2.10;;
23812;SDS011;12087;45.190;5.688;2023-03-14T09:47:20;2.08;;;0.98;;
23812;SDS011;12087;45.190;5.688;2023-03-14T09:52:45;1.55;;;1.10;;
23812;SDS011;12087;45.190;5.688;2023-03-14T09:58:09;3.00;;;1.73;;
23812;SDS011;12087;45.190;5.688;2023-03-14T10:03:34;2.33;;;1.30;;
23812;SDS011;12087;45.190;5.688;2023-03-14T10:08:57;1.90;;;1.30;;
23812;SDS011;12087;45.190;5.688;2023-03-14T10:14:28;2.80;;;1.10;;
23812;SDS011;12087;45.190;5.688;2023-03-14T10:19:54;1.50;;;1.20;;
23812;SDS011;12087;45.190;5.688;2023-03-14T10:25:23;1.25;;;0.75;;
23812;SDS011;12087;45.190;5.688;2023-03-14T10:30:48;2.90;;;0.70;;
23812;SDS011;12087;45.190;5.688;2023-03-14T10:36:19;3.00;;;1.13;;
23812;SDS011;12087;45.190;5.688;2023-03-14T10:41:46;1.73;;;0.77;;
23812;SDS011;12087;45.190;5.688;2023-03-14T10:47:15;3.05;;;1.10;;
23812;SDS011;12087;45.190;5.688;2023-03-14T10:52:44;13.63;;;1.48;;
23812;SDS011;12087;45.190;5.688;2023-03-14T10:58:17;3.47;;;1.58;;
23812;SDS011;12087;45.190;5.688;2023-03-14T11:03:51;6.63;;;1.73;;
23812;SDS011;12087;45.190;5.688;2023-03-14T11:09:21;4.50;;;1.40;;
23812;SDS011;12087;45.190;5.688;2023-03-14T11:14:48;4.53;;;1.23;;
23812;SDS011;12087;45.190;5.688;2023-03-14T11:20:24;5.00;;;1.20;;
23812;SDS011;12087;45.190;5.688;2023-03-14T11:25:58;2.45;;;1.17;;
23812;SDS011;12087;45.190;5.688;2023-03-14T11:31:31;2.08;;;1.13;;
23812;SDS011;12087;45.190;5.688;2023-03-14T11:36:58;4.47;;;1.30;;
23812;SDS011;12087;45.190;5.688;2023-03-14T11:42:24;3.40;;;1.20;;
23812;SDS011;12087;45.190;5.688;2023-03-14T11:47:48;3.38;;;1.00;;
23812;SDS011;12087;45.190;5.688;2023-03-14T11:53:16;3.60;;;1.08;;
23812;SDS011;12087;45.190;5.688;2023-03-14T11:58:46;4.28;;;0.95;;
23812;SDS011;12087;45.190;5.688;2023-03-14T12:04:16;3.42;;;1.10;;
23812;SDS011;12087;45.190;5.688;2023-03-14T12:09:46;2.92;;;0.75;;
23812;SDS011;12087;45.190;5.688;2023-03-14T12:15:18;2.05;;;1.08;;
23812;SDS011;12087;45.190;5.688;2023-03-14T12:20:41;3.55;;;1.02;;
23812;SDS011;12087;45.190;5.688;2023-03-14T12:26:15;3.75;;;1.00;;
23812;SDS011;12087;45.190;5.688;2023-03-14T12:31:43;8.30;;;1.67;;
23812;SDS011;12087;45.190;5.688;2023-03-14T12:37:12;2.92;;;0.88;;
23812;SDS011;12087;45.190;5.688;2023-03-14T12:42:42;2.88;;;0.90;;
23812;SDS011;12087;45.190;5.688;2023-03-14T12:48:16;3.67;;;0.82;;
23812;SDS011;12087;45.190;5.688;2023-03-14T12:53:51;3.55;;;0.70;;
23812;SDS011;12087;45.190;5.688;2023-03-14T12:59:36;3.90;;;0.90;;
23812;SDS011;12087;45.190;5.688;2023-03-14T13:05:03;7.00;;;0.90;;
23812;SDS011;12087;45.190;5.688;2023-03-14T13:10:30;4.82;;;1.10;;
23812;SDS011;12087;45.190;5.688;2023-03-14T13:16:03;3.60;;;1.02;;
23812;SDS011;12087;45.190;5.688;2023-03-14T13:21:27;5.60;;;1.17;;
23812;SDS011;12087;45.190;5.688;2023-03-14T13:26:55;2.45;;;0.90;;
23812;SDS011;12087;45.190;5.688;2023-03-14T13:32:19;4.75;;;1.20;;
23812;SDS011;12087;45.190;5.688;2023-03-14T13:37:44;7.43;;;1.20;;
23812;SDS011;12087;45.190;5.688;2023-03-14T13:43:11;5.53;;;1.35;;
23812;SDS011;12087;45.190;5.688;2023-03-14T13:48:39;3.80;;;0.90;;
23812;SDS011;12087;45.190;5.688;2023-03-14T13:54:14;5.32;;;0.90;;
23812;SDS011;12087;45.190;5.688;2023-03-14T13:59:38;2.97;;;0.70;;
23812;SDS011;12087;45.190;5.688;2023-03-14T14:05:00;4.25;;;1.25;;
23812;SDS011;12087;45.190;5.688;2023-03-14T14:10:25;3.70;;;1.52;;
23812;SDS011;12087;45.190;5.688;2023-03-14T14:15:51;3.95;;;1.13;;
23812;SDS011;12087;45.190;5.688;2023-03-14T14:21:14;4.07;;;0.93;;
23812;SDS011;12087;45.190;5.688;2023-03-14T14:26:41;3.75;;;1.13;;
23812;SDS011;12087;45.190;5.688;2023-03-14T14:32:11;2.55;;;1.00;;
23812;SDS011;12087;45.190;5.688;2023-03-14T14:37:35;1.90;;;0.90;;
23812;SDS011;12087;45.190;5.688;2023-03-14T14:43:05;5.07;;;1.13;;
23812;SDS011;12087;45.190;5.688;2023-03-14T14:48:27;2.13;;;1.10;;
23812;SDS011;12087;45.190;5.688;2023-03-14T14:53:49;1.63;;;0.77;;
23812;SDS011;12087;45.190;5.688;2023-03-14T14:59:23;2.42;;;0.90;;
23812;SDS011;12087;45.190;5.688;2023-03-14T15:04:48;2.67;;;1.13;;
23812;SDS011;12087;45.190;5.688;2023-03-14T15:10:11;3.47;;;1.13;;
23812;SDS011;12087;45.190;5.688;2023-03-14T15:15:35;3.30;;;1.42;;
23812;SDS011;12087;45.190;5.688;2023-03-14T15:20:57;2.78;;;0.90;;
23812;SDS011;12087;45.190;5.688;2023-03-14T15:26:21;5.68;;;1.63;;
23812;SDS011;12087;45.190;5.688;2023-03-14T15:31:46;2.28;;;1.13;;
23812;SDS011;12087;45.190;5.688;2023-03-14T15:37:10;3.33;;;1.27;;
23812;SDS011;12087;45.190;5.688;2023-03-14T15:42:33;3.40;;;0.98;;
23812;SDS011;12087;45.190;5.688;2023-03-14T15:47:57;6.03;;;1.35;;
23812;SDS011;12087;45.190;5.688;2023-03-14T15:53:19;4.97;;;1.08;;
23812;SDS011;12087;45.190;5.688;2023-03-14T15:58:41;3.35;;;1.70;;
23812;SDS011;12087;45.190;5.688;2023-03-14T16:04:07;3.47;;;1.00;;
23812;SDS011;12087;45.190;5.688;2023-03-14T16:09:30;6.70;;;1.90;;
23812;SDS011;12087;45.190;5.688;2023-03-14T16:14:52;10.70;;;1.58;;
23812;SDS011;12087;45.190;5.688;2023-03-14T16:20:16;4.85;;;1.27;;
23812;SDS011;12087;45.190;5.688;2023-03-14T16:25:39;1.65;;;0.70;;
23812;SDS011;12087;45.190;5.688;2023-03-14T16:31:02;3.00;;;0.90;;
23812;SDS011;12087;45.190;5.688;2023-03-14T16:36:26;1.63;;;0.98;;
23812;SDS011;12087;45.190;5.688;2023-03-14T16:41:48;2.33;;;1.10;;
23812;SDS011;12087;45.190;5.688;2023-03-14T16:47:10;3.53;;;1.25;;
23812;SDS011;12087;45.190;5.688;2023-03-14T16:52:34;2.28;;;1.10;;
23812;SDS011;12087;45.190;5.688;2023-03-14T16:57:56;3.45;;;0.98;;
23812;SDS011;12087;45.190;5.688;2023-03-14T17:03:18;6.30;;;1.30;;
23812;SDS011;12087;45.190;5.688;2023-03-14T17:08:42;3.00;;;1.00;;
23812;SDS011;12087;45.190;5.688;2023-03-14T17:14:04;2.40;;;1.20;;
23812;SDS011;12087;45.190;5.688;2023-03-14T17:19:27;3.95;;;2.08;;
23812;SDS011;12087;45.190;5.688;2023-03-14T17:24:53;5.47;;;2.00;;
23812;SDS011;12087;45.190;5.688;2023-03-14T17:30:15;3.38;;;1.77;;
23812;SDS011;12087;45.190;5.688;2023-03-14T17:35:38;2.03;;;1.02;;
23812;SDS011;12087;45.190;5.688;2023-03-14T17:41:01;3.47;;;1.02;;
23812;SDS011;12087;45.190;5.688;2023-03-14T17:46:24;6.75;;;1.70;;
23812;SDS011;12087;45.190;5.688;2023-03-14T17:51:46;5.07;;;1.55;;
23812;SDS011;12087;45.190;5.688;2023-03-14T17:57:10;4.25;;;1.67;;
23812;SDS011;12087;45.190;5.688;2023-03-14T18:02:32;7.47;;;3.08;;
23812;SDS011;12087;45.190;5.688;2023-03-14T18:07:54;7.32;;;2.72;;
23812;SDS011;12087;45.190;5.688;2023-03-14T18:13:19;8.57;;;3.13;;
23812;SDS011;12087;45.190;5.688;2023-03-14T18:18:41;4.32;;;1.60;;
23812;SDS011;12087;45.190;5.688;2023-03-14T18:24:04;5.57;;;2.00;;
23812;SDS011;12087;45.190;5.688;2023-03-14T18:29:28;5.82;;;2.28;;
23812;SDS011;12087;45.190;5.688;2023-03-14T18:34:50;6.07;;;2.40;;
23812;SDS011;12087;45.190;5.688;2023-03-14T18:40:12;3.40;;;2.03;;
23812;SDS011;12087;45.190;5.688;2023-03-14T18:45:38;2.90;;;1.60;;
23812;SDS011;12087;45.190;5.688;2023-03-14T18:51:00;4.72;;;2.00;;
23812;SDS011;12087;45.190;5.688;2023-03-14T18:56:23;3.55;;;2.35;;
23812;SDS011;12087;45.190;5.688;2023-03-14T19:01:47;5.55;;;2.78;;
23812;SDS011;12087;45.190;5.688;2023-03-14T19:07:09;6.47;;;3.42;;
23812;SDS011;12087;45.190;5.688;2023-03-14T19:12:33;9.80;;;5.30;;
23812;SDS011;12087;45.190;5.688;2023-03-14T19:17:57;29.52;;;13.98;;
23812;SDS011;12087;45.190;5.688;2023-03-14T19:23:19;15.98;;;8.55;;
23812;SDS011;12087;45.190;5.688;2023-03-14T19:28:44;13.63;;;7.47;;
23812;SDS011;12087;45.190;5.688;2023-03-14T19:34:08;10.05;;;5.10;;
23812;SDS011;12087;45.190;5.688;2023-03-14T19:39:30;6.63;;;3.17;;
23812;SDS011;12087;45.190;5.688;2023-03-14T19:44:52;5.40;;;3.00;;
23812;SDS011;12087;45.190;5.688;2023-03-14T19:50:17;6.10;;;3.47;;
23812;SDS011;12087;45.190;5.688;2023-03-14T19:55:39;8.63;;;4.38;;
23812;SDS011;12087;45.190;5.688;2023-03-14T20:01:05;6.32;;;4.28;;
23812;SDS011;12087;45.190;5.688;2023-03-14T20:06:30;10.18;;;4.75;;
23812;SDS011;12087;45.190;5.688;2023-03-14T20:11:53;8.82;;;4.65;;
23812;SDS011;12087;45.190;5.688;2023-03-14T20:17:15;7.15;;;2.65;;
23812;SDS011;12087;45.190;5.688;2023-03-14T20:22:39;9.93;;;3.05;;
23812;SDS011;12087;45.190;5.688;2023-03-14T20:28:02;5.75;;;2.35;;
23812;SDS011;12087;45.190;5.688;2023-03-14T20:33:24;5.55;;;2.80;;
23812;SDS011;12087;45.190;5.688;2023-03-14T20:38:48;5.93;;;2.17;;
23812;SDS011;12087;45.190;5.688;2023-03-14T20:44:10;4.93;;;2.00;;
23812;SDS011;12087;45.190;5.688;2023-03-14T20:49:33;6.65;;;2.70;;
23812;SDS011;12087;45.190;5.688;2023-03-14T20:54:56;6.93;;;2.95;;
23812;SDS011;12087;45.190;5.688;2023-03-14T21:00:19;10.77;;;4.28;;
23812;SDS011;12087;45.190;5.688;2023-03-14T21:05:42;4.30;;;1.90;;
23812;SDS011;12087;45.190;5.688;2023-03-14T21:11:06;6.15;;;2.30;;
23812;SDS011;12087;45.190;5.688;2023-03-14T21:16:29;8.73;;;2.88;;
23812;SDS011;12087;45.190;5.688;2023-03-14T21:21:51;7.40;;;2.63;;
23812;SDS011;12087;45.190;5.688;2023-03-14T21:27:15;6.82;;;1.85;;
23812;SDS011;12087;45.190;5.688;2023-03-14T21:32:37;9.77;;;5.40;;
23812;SDS011;12087;45.190;5.688;2023-03-14T21:37:59;6.60;;;2.10;;
23812;SDS011;12087;45.190;5.688;2023-03-14T21:43:23;6.40;;;1.95;;
23812;SDS011;12087;45.190;5.688;2023-03-14T21:48:45;5.82;;;2.58;;
23812;SDS011;12087;45.190;5.688;2023-03-14T21:54:07;3.50;;;2.00;;
23812;SDS011;12087;45.190;5.688;2023-03-14T21:59:32;7.13;;;3.13;;
23812;SDS011;12087;45.190;5.688;2023-03-14T22:04:55;7.47;;;2.75;;
23812;SDS011;12087;45.190;5.688;2023-03-14T22:10:18;7.35;;;2.65;;
23812;SDS011;12087;45.190;5.688;2023-03-14T22:15:41;5.25;;;1.63;;
23812;SDS011;12087;45.190;5.688;2023-03-14T22:21:04;8.90;;;2.17;;
23812;SDS011;12087;45.190;5.688;2023-03-14T22:26:27;8.32;;;2.10;;
23812;SDS011;12087;45.190;5.688;2023-03-14T22:31:50;11.65;;;2.20;;
23812;SDS011;12087;45.190;5.688;2023-03-14T22:37:12;7.15;;;1.83;;
23812;SDS011;12087;45.190;5.688;2023-03-14T22:42:35;6.03;;;1.75;;
23812;SDS011;12087;45.190;5.688;2023-03-14T22:47:59;10.00;;;3.40;;
23812;SDS011;12087;45.190;5.688;2023-03-14T22:53:21;8.50;;;4.07;;
23812;SDS011;12087;45.190;5.688;2023-03-14T22:58:43;4.22;;;2.15;;
23812;SDS011;12087;45.190;5.688;2023-03-14T23:04:07;5.88;;;2.63;;
23812;SDS011;12087;45.190;5.688;2023-03-14T23:09:29;7.18;;;4.03;;
23812;SDS011;12087;45.190;5.688;2023-03-14T23:14:52;15.88;;;4.05;;
23812;SDS011;12087;45.190;5.688;2023-03-14T23:20:16;9.70;;;5.05;;
23812;SDS011;12087;45.190;5.688;2023-03-14T23:25:38;8.38;;;3.20;;
23812;SDS011;12087;45.190;5.688;2023-03-14T23:31:01;9.73;;;3.42;;
23812;SDS011;12087;45.190;5.688;2023-03-14T23:36:27;7.93;;;4.07;;
23812;SDS011;12087;45.190;5.688;2023-03-14T23:41:49;10.05;;;4.07;;
23812;SDS011;12087;45.190;5.688;2023-03-14T23:47:12;9.30;;;3.53;;
23812;SDS011;12087;45.190;5.688;2023-03-14T23:52:35;6.97;;;3.17;;
23812;SDS011;12087;45.190;5.688;2023-03-14T23:57:57;6.88;;;3.17;;
